createdAt,value
2023-02-22T00:00:34.934Z,7.30
2023-02-22T00:03:18.458Z,8.18
2023-02-22T00:05:57.158Z,7.60
2023-02-22T00:08:29.107Z,7.65
2023-02-22T00:11:11.456Z,7.00
2023-02-22T00:13:42.053Z,6.80
2023-02-22T00:16:09.132Z,7.32
2023-02-22T00:18:42.056Z,7.50
2023-02-22T00:21:12.994Z,6.85
2023-02-22T00:23:50.198Z,7.07
2023-02-22T00:26:23.732Z,7.22
2023-02-22T00:28:54.297Z,7.30
2023-02-22T00:31:23.732Z,6.57
2023-02-22T00:33:53.249Z,6.32
2023-02-22T00:36:30.771Z,6.65
2023-02-22T00:39:00.342Z,6.87
2023-02-22T00:41:30.567Z,6.72
2023-02-22T00:44:03.754Z,7.12
2023-02-22T00:46:37.634Z,6.40
2023-02-22T00:49:08.044Z,6.43
2023-02-22T00:51:38.794Z,7.10
2023-02-22T00:54:08.879Z,7.15
2023-02-22T00:56:44.272Z,6.53
2023-02-22T00:59:11.991Z,6.37
2023-02-22T01:01:44.840Z,6.70
2023-02-22T01:04:17.535Z,6.18
2023-02-22T01:06:52.084Z,6.00
2023-02-22T01:09:21.620Z,5.95
2023-02-22T01:11:55.367Z,6.72
2023-02-22T01:14:26.123Z,6.05
2023-02-22T01:17:00.191Z,6.20
2023-02-22T01:19:27.579Z,6.07
2023-02-22T01:22:01.421Z,6.00
2023-02-22T01:24:32.155Z,6.40
2023-02-22T01:27:05.647Z,6.10
2023-02-22T01:29:38.882Z,5.60
2023-02-22T01:32:12.253Z,6.20
2023-02-22T01:34:45.773Z,5.72
2023-02-22T01:37:15.979Z,5.87
2023-02-22T01:39:48.502Z,5.50
2023-02-22T01:42:21.489Z,6.20
2023-02-22T01:47:38.254Z,5.68
2023-02-22T01:50:08.313Z,5.45
2023-02-22T01:52:40.794Z,5.85
2023-02-22T01:55:07.608Z,6.30
2023-02-22T01:57:41.201Z,5.28
2023-02-22T02:00:13.855Z,5.68
2023-02-22T02:02:47.225Z,5.60
2023-02-22T02:05:18.792Z,5.78
2023-02-22T02:07:52.115Z,5.95
2023-02-22T02:10:22.830Z,5.43
2023-02-22T02:12:53.440Z,5.50
2023-02-22T02:15:22.454Z,5.40
2023-02-22T02:17:54.436Z,5.57
2023-02-22T02:20:29.807Z,5.28
2023-02-22T02:23:14.581Z,5.28
2023-02-22T02:25:53.821Z,5.07
2023-02-22T02:28:55.072Z,5.30
2023-02-22T02:31:40.620Z,5.30
2023-02-22T02:34:31.862Z,5.25
2023-02-22T02:37:13.305Z,5.40
2023-02-22T02:40:02.485Z,5.18
2023-02-22T02:42:38.599Z,5.43
2023-02-22T02:45:12.140Z,5.30
2023-02-22T02:47:48.463Z,4.78
2023-02-22T02:50:50.708Z,5.35
2023-02-22T02:53:29.775Z,4.97
2023-02-22T02:56:00.782Z,4.93
2023-02-22T02:58:31.761Z,5.05
2023-02-22T03:01:03.827Z,5.00
2023-02-22T03:03:55.731Z,4.57
2023-02-22T03:06:56.655Z,5.32
2023-02-22T03:10:10.020Z,4.70
2023-02-22T03:12:58.645Z,4.93
2023-02-22T03:15:44.180Z,5.00
2023-02-22T03:18:25.638Z,4.53
2023-02-22T03:21:35.845Z,4.72
2023-02-22T03:24:21.333Z,4.47
2023-02-22T03:27:24.492Z,4.55
2023-02-22T03:30:02.567Z,4.70
2023-02-22T03:32:44.471Z,4.65
2023-02-22T03:35:25.975Z,4.25
2023-02-22T03:38:03.902Z,4.10
2023-02-22T03:40:39.421Z,4.62
2023-02-22T03:43:25.031Z,4.30
2023-02-22T03:45:58.445Z,4.65
2023-02-22T03:48:40.736Z,4.30
2023-02-22T03:51:17.407Z,4.20
2023-02-22T03:53:50.868Z,4.28
2023-02-22T03:56:30.853Z,4.00
2023-02-22T03:59:08.005Z,4.40
2023-02-22T04:01:37.876Z,4.15
2023-02-22T04:04:11.196Z,3.92
2023-02-22T04:06:44.502Z,4.10
2023-02-22T04:09:15.231Z,4.57
2023-02-22T04:11:57.065Z,4.12
2023-02-22T04:14:31.924Z,3.90
2023-02-22T04:17:01.509Z,4.20
2023-02-22T04:19:30.835Z,3.75
2023-02-22T04:21:57.779Z,4.47
2023-02-22T04:24:30.244Z,4.20
2023-02-22T04:27:00.161Z,4.47
2023-02-22T04:29:33.252Z,4.10
2023-02-22T04:34:30.025Z,4.10
2023-02-22T04:37:00.707Z,3.87
2023-02-22T04:39:36.837Z,4.28
2023-02-22T04:42:10.834Z,3.95
2023-02-22T04:44:43.690Z,3.60
2023-02-22T04:47:14.597Z,4.20
2023-02-22T04:49:47.317Z,3.95
2023-02-22T04:52:18.421Z,3.40
2023-02-22T04:54:45.354Z,3.72
2023-02-22T04:57:18.933Z,4.25
2023-02-22T04:59:52.139Z,3.87
2023-02-22T05:02:22.754Z,3.85
2023-02-22T05:04:49.748Z,3.70
2023-02-22T05:07:25.665Z,3.62
2023-02-22T05:09:55.535Z,3.70
2023-02-22T05:12:27.286Z,3.30
2023-02-22T05:14:57.090Z,3.37
2023-02-22T05:17:24.337Z,3.47
2023-02-22T05:19:53.825Z,3.50
2023-02-22T05:22:26.231Z,3.78
2023-02-22T05:24:59.506Z,3.70
2023-02-22T05:27:31.377Z,3.58
2023-02-22T05:29:58.189Z,3.80
2023-02-22T05:32:30.909Z,3.70
2023-02-22T05:35:01.053Z,3.40
2023-02-22T05:37:31.144Z,3.60
2023-02-22T05:40:01.836Z,3.50
2023-02-22T05:42:29.672Z,3.67
2023-02-22T05:45:00.131Z,3.60
2023-02-22T05:47:30.086Z,3.53
2023-02-22T05:49:56.861Z,4.03
2023-02-22T05:52:23.618Z,3.53
2023-02-22T05:54:56.512Z,3.47
2023-02-22T05:57:26.678Z,3.20
2023-02-22T05:59:53.406Z,3.95
2023-02-22T06:02:24.382Z,3.55
2023-02-22T06:04:51.081Z,3.70
2023-02-22T06:07:23.571Z,3.50
2023-02-22T06:09:50.261Z,3.85
2023-02-22T06:12:17.179Z,3.62
2023-02-22T06:14:50.625Z,3.80
2023-02-22T06:17:20.508Z,3.37
2023-02-22T06:19:53.737Z,3.65
2023-02-22T06:25:00.072Z,3.20
2023-02-22T06:27:30.834Z,24.63
2023-02-22T06:29:57.781Z,68.32
2023-02-22T06:32:24.839Z,38.72
2023-02-22T06:34:51.694Z,34.00
2023-02-22T06:37:18.440Z,141.52
2023-02-22T06:39:48.680Z,138.12
2023-02-22T06:42:24.898Z,99.45
2023-02-22T06:44:54.748Z,69.30
2023-02-22T06:47:21.451Z,67.10
2023-02-22T06:49:58.998Z,59.85
2023-02-22T06:52:25.736Z,58.53
2023-02-22T06:54:58.814Z,57.53
2023-02-22T06:59:52.042Z,52.28
2023-02-22T07:02:19.478Z,52.55
2023-02-22T07:04:49.425Z,50.83
2023-02-22T07:07:16.435Z,48.50
2023-02-22T07:09:49.246Z,47.92
2023-02-22T07:12:22.941Z,44.75
2023-02-22T07:14:50.499Z,43.83
2023-02-22T07:17:24.144Z,43.40
2023-02-22T07:19:55.493Z,42.08
2023-02-22T07:22:24.965Z,38.25
2023-02-22T07:24:55.174Z,38.15
2023-02-22T07:27:29.675Z,33.72
2023-02-22T07:29:59.513Z,29.20
2023-02-22T07:32:30.294Z,28.40
2023-02-22T07:34:57.365Z,28.15
2023-02-22T07:37:27.080Z,28.33
2023-02-22T07:40:01.342Z,29.27
2023-02-22T07:42:28.323Z,25.73
2023-02-22T07:44:59.612Z,24.45
2023-02-22T07:47:33.613Z,21.42
2023-02-22T07:50:02.246Z,17.60
2023-02-22T07:52:32.140Z,16.62
2023-02-22T07:54:59.087Z,15.50
2023-02-22T07:57:27.039Z,17.40
2023-02-22T07:59:54.030Z,16.85
2023-02-22T08:02:22.038Z,17.90
2023-02-22T08:04:52.401Z,17.20
2023-02-22T08:07:25.032Z,15.73
2023-02-22T08:09:58.224Z,16.25
2023-02-22T08:12:28.508Z,15.63
2023-02-22T08:14:58.529Z,15.48
2023-02-22T08:17:28.180Z,15.35
2023-02-22T08:20:01.550Z,14.57
2023-02-22T08:22:31.285Z,15.02
2023-02-22T08:24:58.225Z,14.40
2023-02-22T08:27:29.376Z,15.35
2023-02-22T08:29:56.872Z,14.27
2023-02-22T08:32:27.400Z,15.48
2023-02-22T08:34:54.281Z,13.38
2023-02-22T08:37:21.012Z,13.07
2023-02-22T08:39:53.298Z,13.48
2023-02-22T08:42:23.446Z,12.45
2023-02-22T08:44:52.974Z,12.65
2023-02-22T08:47:19.621Z,12.27
2023-02-22T08:49:49.578Z,12.13
2023-02-22T08:52:18.429Z,12.48
2023-02-22T08:54:45.654Z,11.70
2023-02-22T08:57:12.580Z,11.50
2023-02-22T08:59:39.184Z,12.27
2023-02-22T09:02:13.919Z,12.73
2023-02-22T09:04:44.079Z,11.32
2023-02-22T09:07:18.216Z,11.35
2023-02-22T09:09:50.856Z,11.50
2023-02-22T09:12:18.172Z,10.73
2023-02-22T09:14:48.833Z,11.85
2023-02-22T09:17:15.709Z,11.20
2023-02-22T09:19:42.484Z,10.43
2023-02-22T09:22:09.279Z,10.60
2023-02-22T09:24:35.936Z,10.38
2023-02-22T09:27:05.437Z,9.65
2023-02-22T09:29:32.099Z,10.20
2023-02-22T09:32:01.754Z,9.88
2023-02-22T09:34:37.941Z,10.10
2023-02-22T09:37:10.100Z,10.43
2023-02-22T09:39:43.148Z,9.48
2023-02-22T09:44:52.340Z,9.30
2023-02-22T09:47:26.438Z,9.55
2023-02-22T09:50:13.228Z,9.23
2023-02-22T09:52:56.620Z,8.85
2023-02-22T09:55:26.116Z,8.77
2023-02-22T09:57:53.488Z,8.80
2023-02-22T10:00:24.055Z,8.57
2023-02-22T10:03:05.299Z,8.30
2023-02-22T10:05:37.277Z,8.35
2023-02-22T10:08:11.452Z,8.77
2023-02-22T10:10:43.327Z,8.32
2023-02-22T10:13:31.779Z,8.20
2023-02-22T10:16:18.097Z,7.85
2023-02-22T10:19:16.990Z,7.53
2023-02-22T10:21:53.307Z,7.97
2023-02-22T10:24:44.234Z,8.50
2023-02-22T10:27:21.159Z,8.13
2023-02-22T10:30:24.591Z,8.13
2023-02-22T10:32:59.357Z,7.37
2023-02-22T10:35:33.441Z,8.30
2023-02-22T10:38:11.718Z,7.43
2023-02-22T10:40:39.071Z,7.55
2023-02-22T10:43:08.422Z,7.03
2023-02-22T10:45:36.321Z,6.95
2023-02-22T10:48:20.277Z,7.03
2023-02-22T10:50:52.491Z,6.72
2023-02-22T10:53:19.611Z,7.85
2023-02-22T10:56:10.477Z,7.00
2023-02-22T10:58:51.710Z,7.10
2023-02-22T11:01:32.990Z,7.30
2023-02-22T11:04:13.767Z,7.15
2023-02-22T11:06:49.818Z,6.60
2023-02-22T11:09:34.512Z,7.03
2023-02-22T11:12:19.540Z,6.37
2023-02-22T11:14:50.186Z,7.00
2023-02-22T11:17:28.111Z,7.47
2023-02-22T11:19:58.705Z,6.57
2023-02-22T11:22:39.869Z,6.82
2023-02-22T11:25:18.980Z,6.32
2023-02-22T11:27:46.418Z,7.22
2023-02-22T11:30:29.296Z,6.25
2023-02-22T11:33:17.155Z,6.03
2023-02-22T11:35:51.790Z,5.85
2023-02-22T11:38:23.002Z,6.30
2023-02-22T11:41:07.044Z,6.60
2023-02-22T11:43:37.760Z,6.45
2023-02-22T11:46:11.953Z,6.57
2023-02-22T11:48:42.202Z,6.30
2023-02-22T11:51:35.220Z,6.07
2023-02-22T11:54:33.269Z,5.62
2023-02-22T11:57:48.560Z,6.00
2023-02-22T12:00:23.439Z,5.25
2023-02-22T12:03:16.136Z,5.53
2023-02-22T12:06:10.737Z,6.05
2023-02-22T12:09:03.084Z,5.40
2023-02-22T12:12:00.270Z,6.47
2023-02-22T12:15:08.533Z,5.50
2023-02-22T12:17:54.344Z,4.97
2023-02-22T12:20:27.777Z,4.90
2023-02-22T12:23:29.227Z,4.22
2023-02-22T12:26:11.655Z,5.35
2023-02-22T12:28:40.951Z,5.37
2023-02-22T12:31:18.188Z,4.87
2023-02-22T12:34:04.030Z,5.35
2023-02-22T12:36:40.250Z,4.07
2023-02-22T12:39:51.740Z,4.57
2023-02-22T12:42:54.067Z,4.07
2023-02-22T12:45:56.356Z,3.90
2023-02-22T12:48:42.080Z,4.03
2023-02-22T12:51:44.529Z,3.97
2023-02-22T12:54:22.978Z,3.60
2023-02-22T12:57:12.758Z,3.70
2023-02-22T12:59:50.404Z,4.00
2023-02-22T13:02:21.015Z,3.92
2023-02-22T13:04:54.508Z,3.78
2023-02-22T13:07:34.691Z,4.10
2023-02-22T13:10:24.577Z,3.47
2023-02-22T13:13:09.930Z,3.37
2023-02-22T13:16:29.382Z,3.08
2023-02-22T13:19:16.816Z,3.40
2023-02-22T13:21:43.514Z,3.35
2023-02-22T13:24:30.183Z,3.62
2023-02-22T13:27:02.104Z,3.05
2023-02-22T13:29:38.165Z,3.15
2023-02-22T13:32:29.555Z,3.10
2023-02-22T13:35:09.300Z,3.22
2023-02-22T13:38:13.665Z,2.92
2023-02-22T13:40:49.440Z,3.45
2023-02-22T13:43:25.245Z,3.20
2023-02-22T13:45:59.963Z,3.12
2023-02-22T13:48:41.817Z,3.08
2023-02-22T13:51:47.886Z,2.78
2023-02-22T13:54:33.108Z,2.92
2023-02-22T13:57:04.919Z,2.90
2023-02-22T13:59:37.155Z,2.95
2023-02-22T14:02:05.978Z,3.15
2023-02-22T14:04:38.908Z,2.70
2023-02-22T14:09:55.918Z,2.90
2023-02-22T14:12:31.532Z,2.87
2023-02-22T14:15:18.720Z,3.30
2023-02-22T14:18:06.514Z,3.08
2023-02-22T14:20:36.400Z,3.25
2023-02-22T14:23:29.083Z,3.40
2023-02-22T14:26:09.187Z,2.97
2023-02-22T14:28:46.481Z,2.90
2023-02-22T14:31:33.345Z,4.20
2023-02-22T14:34:15.699Z,3.80
2023-02-22T14:37:07.398Z,3.33
2023-02-22T14:40:04.219Z,3.80
2023-02-22T14:42:39.363Z,3.72
2023-02-22T14:45:18.462Z,3.78
2023-02-22T14:47:54.708Z,3.40
2023-02-22T14:50:34.017Z,3.50
2023-02-22T14:53:26.961Z,3.53
2023-02-22T14:56:02.830Z,4.07
2023-02-22T14:58:48.646Z,3.72
2023-02-22T15:01:55.283Z,3.75
2023-02-22T15:04:31.402Z,4.20
2023-02-22T15:07:00.797Z,4.20
2023-02-22T15:09:33.042Z,4.62
2023-02-22T15:12:07.762Z,4.60
2023-02-22T15:17:17.992Z,5.10
2023-02-22T15:19:46.924Z,4.50
2023-02-22T15:22:26.374Z,4.47
2023-02-22T15:25:05.596Z,4.20
2023-02-22T15:27:33.837Z,4.95
2023-02-22T15:30:24.324Z,4.70
2023-02-22T15:33:03.687Z,4.68
2023-02-22T15:35:33.702Z,4.72
2023-02-22T15:41:29.778Z,4.18
2023-02-22T15:49:22.516Z,4.07
2023-02-22T15:52:02.716Z,3.90
2023-02-22T15:54:30.696Z,3.60
2023-02-22T15:56:57.442Z,3.55
2023-02-22T15:59:31.211Z,3.47
2023-02-22T16:02:02.311Z,3.78
2023-02-22T16:04:31.540Z,3.58
2023-02-22T16:07:16.575Z,3.62
2023-02-22T16:09:49.602Z,4.10
2023-02-22T16:14:54.399Z,3.78
2023-02-22T16:17:49.366Z,4.40
2023-02-22T16:20:27.220Z,3.80
2023-02-22T16:22:59.601Z,4.07
2023-02-22T16:25:33.617Z,3.72
2023-02-22T16:28:03.319Z,3.55
2023-02-22T16:30:36.485Z,3.37
2023-02-22T16:33:08.400Z,3.70
2023-02-22T16:35:35.086Z,3.72
2023-02-22T16:38:07.469Z,3.17
2023-02-22T16:40:38.459Z,3.33
2023-02-22T16:43:18.641Z,3.35
2023-02-22T16:45:50.002Z,3.62
2023-02-22T16:48:28.134Z,3.80
2023-02-22T16:51:02.352Z,3.28
2023-02-22T16:53:32.269Z,3.53
2023-02-22T16:56:04.501Z,3.75
2023-02-22T16:58:38.064Z,3.75
2023-02-22T17:01:06.545Z,3.62
2023-02-22T17:03:33.910Z,3.42
2023-02-22T17:06:01.245Z,3.78
2023-02-22T17:08:28.121Z,3.42
2023-02-22T17:10:58.020Z,3.90
2023-02-22T17:13:30.385Z,4.00
2023-02-22T17:16:02.064Z,3.20
2023-02-22T17:18:31.268Z,4.28
2023-02-22T17:21:02.681Z,4.28
2023-02-22T17:23:32.131Z,3.65
2023-02-22T17:26:02.453Z,3.45
2023-02-22T17:28:43.001Z,3.97
2023-02-22T17:31:35.970Z,4.57
2023-02-22T17:34:08.006Z,9.68
2023-02-22T17:36:42.171Z,12.00
2023-02-22T17:39:11.360Z,15.32
2023-02-22T17:41:43.593Z,17.45
2023-02-22T17:44:16.915Z,19.42
2023-02-22T17:46:56.928Z,21.77
2023-02-22T17:49:28.066Z,24.95
2023-02-22T17:52:00.830Z,22.33
2023-02-22T17:54:30.693Z,22.58
2023-02-22T17:56:58.318Z,21.85
2023-02-22T17:59:25.374Z,22.13
2023-02-22T18:01:55.880Z,20.25
2023-02-22T18:04:31.903Z,20.15
2023-02-22T18:06:59.476Z,20.17
2023-02-22T18:09:26.727Z,20.85
2023-02-22T18:11:56.757Z,17.42
2023-02-22T18:14:24.065Z,17.55
2023-02-22T18:16:51.399Z,16.10
2023-02-22T18:19:19.952Z,16.58
2023-02-22T18:21:48.783Z,16.35
2023-02-22T18:24:16.516Z,16.35
2023-02-22T18:26:47.139Z,14.95
2023-02-22T18:29:17.868Z,14.00
2023-02-22T18:32:08.551Z,12.32
2023-02-22T18:34:36.220Z,12.98
2023-02-22T18:37:06.173Z,13.30
2023-02-22T18:39:37.689Z,12.52
2023-02-22T18:42:27.504Z,12.00
2023-02-22T18:44:58.452Z,11.50
2023-02-22T18:51:15.578Z,9.50
2023-02-22T18:53:46.617Z,10.00
2023-02-22T18:57:01.040Z,9.38
2023-02-22T18:59:30.872Z,10.13
2023-02-22T19:02:02.467Z,8.20
2023-02-22T19:04:36.313Z,9.60
2023-02-22T19:10:55.402Z,9.48
2023-02-22T19:13:44.570Z,8.93
2023-02-22T19:16:32.971Z,8.88
2023-02-22T19:19:07.076Z,9.02
2023-02-22T19:21:34.342Z,8.93
2023-02-22T19:24:03.906Z,8.77
2023-02-22T19:27:09.953Z,8.60
2023-02-22T19:29:40.509Z,8.77
2023-02-22T22:32:23.175Z,5.97
2023-02-22T22:41:19.836Z,6.12
2023-02-22T23:20:02.077Z,5.10
2023-02-22T23:26:10.850Z,5.53
